Time;durP1;ratioP1;P1;durP2;ratioP2;P2;SDS_P1;SDS_P2;PMS_P1;PMS_P2;Temp;Humidity;BMP_temperature;BMP_pressure;BME280_temperature;BME280_humidity;BME280_pressure;Samples;Min_cycle;Max_cycle;Signal;HPM_P1;HPM_P2
2022/06/12 00:00:16;;;;;;;20.80;4.60;;;;;;;;;;4913365;29;20769;-75
2022/06/12 00:02:43;;;;;;;17.75;4.88;;;;;;;;;;4897207;29;20056;-75
2022/06/12 00:05:12;;;;;;;20.52;5.97;;;;;;;;;;4896925;29;20131;-75
2022/06/12 00:07:40;;;;;;;23.02;6.22;;;;;;;;;;4933551;29;20137;-75
2022/06/12 00:10:08;;;;;;;20.63;6.18;;;;;;;;;;4951473;29;20142;-75
2022/06/12 00:12:36;;;;;;;28.95;5.72;;;;;;;;;;4943656;29;20055;-75
2022/06/12 00:15:07;;;;;;;15.90;5.05;;;;;;;;;;4933407;29;20079;-76
2022/06/12 00:17:34;;;;;;;22.55;5.35;;;;;;;;;;4932853;29;20131;-76
2022/06/12 00:20:01;;;;;;;25.17;5.57;;;;;;;;;;4932891;29;20122;-76
2022/06/12 00:22:29;;;;;;;23.80;7.97;;;;;;;;;;4932353;29;20737;-76
2022/06/12 00:24:56;;;;;;;31.38;7.03;;;;;;;;;;4916357;29;20730;-76
2022/06/12 00:27:23;;;;;;;25.50;8.43;;;;;;;;;;4934121;29;20082;-76
2022/06/12 00:29:51;;;;;;;16.70;6.60;;;;;;;;;;4943006;29;20060;-75
2022/06/12 00:32:19;;;;;;;25.65;6.95;;;;;;;;;;4932347;29;20148;-74
2022/06/12 00:34:49;;;;;;;27.27;8.02;;;;;;;;;;4915363;29;20147;-74
2022/06/12 00:37:18;;;;;;;28.83;8.23;;;;;;;;;;4915785;29;20052;-74
2022/06/12 00:39:46;;;;;;;28.15;8.32;;;;;;;;;;4932313;29;20056;-74
2022/06/12 00:42:24;;;;;;;24.48;6.97;;;;;;;;;;4932451;29;20130;-74
2022/06/12 00:44:53;;;;;;;17.70;6.65;;;;;;;;;;4915207;29;20091;-74
2022/06/12 00:47:21;;;;;;;20.10;6.63;;;;;;;;;;4940242;29;20134;-75
2022/06/12 00:49:51;;;;;;;23.85;7.63;;;;;;;;;;4914468;29;20086;-75
2022/06/12 00:52:21;;;;;;;23.33;7.03;;;;;;;;;;4914626;29;20858;-75
2022/06/12 00:54:51;;;;;;;19.65;6.70;;;;;;;;;;4931988;29;20166;-75
2022/06/12 00:57:19;;;;;;;23.65;6.88;;;;;;;;;;4911953;29;20080;-75
2022/06/12 00:59:52;;;;;;;32.05;7.85;;;;;;;;;;4911418;29;20139;-75
2022/06/12 01:02:22;;;;;;;20.55;6.60;;;;;;;;;;4911481;29;20135;-75
2022/06/12 01:07:40;;;;;;;22.35;6.80;;;;;;;;;;4939684;29;20130;-75
2022/06/12 01:10:09;;;;;;;29.98;8.05;;;;;;;;;;4951108;29;20434;-75
2022/06/12 01:12:38;;;;;;;26.92;6.18;;;;;;;;;;4933247;29;20444;-75
2022/06/12 01:15:10;;;;;;;26.13;6.18;;;;;;;;;;4948505;29;20452;-74
2022/06/12 01:17:39;;;;;;;22.05;6.55;;;;;;;;;;4931428;29;20453;-75
2022/06/12 01:20:11;;;;;;;19.85;6.38;;;;;;;;;;4931584;29;20051;-75
2022/06/12 01:22:47;;;;;;;22.25;6.45;;;;;;;;;;4931387;29;20832;-74
2022/06/12 01:25:26;;;;;;;21.95;5.93;;;;;;;;;;4931475;29;20134;-74
2022/06/12 01:27:56;;;;;;;16.27;5.30;;;;;;;;;;4931280;29;20154;-74
2022/06/12 01:30:30;;;;;;;22.50;6.00;;;;;;;;;;4932250;29;20054;-74
2022/06/12 01:33:04;;;;;;;16.55;5.38;;;;;;;;;;4931239;29;20052;-75
2022/06/12 01:35:40;;;;;;;18.63;5.13;;;;;;;;;;4931503;29;20122;-75
2022/06/12 01:38:10;;;;;;;15.88;5.05;;;;;;;;;;4931640;29;20474;-75
2022/06/12 01:41:01;;;;;;;16.63;4.72;;;;;;;;;;4930783;29;20512;-75
2022/06/12 01:43:48;;;;;;;19.65;4.82;;;;;;;;;;4904548;29;20175;-75
2022/06/12 01:46:21;;;;;;;18.55;5.07;;;;;;;;;;4913863;29;20058;-75
2022/06/12 01:48:49;;;;;;;16.17;4.50;;;;;;;;;;4930923;29;20702;-76
2022/06/12 01:51:16;;;;;;;18.77;5.30;;;;;;;;;;4929158;29;20111;-75
2022/06/12 01:53:49;;;;;;;12.73;4.47;;;;;;;;;;4928074;29;20131;-75
2022/06/12 01:56:39;;;;;;;33.42;4.88;;;;;;;;;;4912057;29;20139;-75
2022/06/12 01:59:25;;;;;;;16.50;4.97;;;;;;;;;;4912055;29;20667;-75
2022/06/12 02:01:56;;;;;;;25.88;5.57;;;;;;;;;;4918559;29;20083;-75
2022/06/12 02:04:28;;;;;;;19.92;4.85;;;;;;;;;;4930983;29;20453;-75
2022/06/12 02:07:00;;;;;;;16.20;4.75;;;;;;;;;;4949741;28;20086;-75
2022/06/12 02:09:38;;;;;;;15.23;4.50;;;;;;;;;;4949855;28;20089;-75
2022/06/12 02:15:02;;;;;;;18.80;4.97;;;;;;;;;;4952912;29;20083;-75
2022/06/12 02:17:32;;;;;;;18.42;4.88;;;;;;;;;;4949442;28;20137;-75
2022/06/12 02:20:01;;;;;;;18.55;4.88;;;;;;;;;;4945895;29;20469;-75
2022/06/12 02:22:29;;;;;;;20.35;5.00;;;;;;;;;;4935652;29;20083;-75
2022/06/12 02:25:02;;;;;;;21.52;5.60;;;;;;;;;;4949522;29;20090;-75
2022/06/12 02:27:33;;;;;;;12.98;5.05;;;;;;;;;;4949373;29;20463;-75
2022/06/12 02:30:16;;;;;;;20.83;5.30;;;;;;;;;;4931755;29;20082;-75
2022/06/12 02:32:45;;;;;;;25.02;6.53;;;;;;;;;;4948636;29;20468;-75
2022/06/12 02:35:17;;;;;;;22.42;5.50;;;;;;;;;;4949318;29;20087;-75
2022/06/12 02:37:47;;;;;;;16.83;4.82;;;;;;;;;;4938613;29;20079;-75
2022/06/12 02:40:25;;;;;;;11.07;4.78;;;;;;;;;;4912946;29;20094;-75
2022/06/12 02:42:53;;;;;;;15.88;5.78;;;;;;;;;;4930126;29;20138;-75
2022/06/12 02:45:24;;;;;;;22.50;4.93;;;;;;;;;;4930204;29;20130;-75
2022/06/12 02:47:52;;;;;;;14.32;5.15;;;;;;;;;;4929848;29;20488;-75
2022/06/12 02:50:22;;;;;;;16.48;4.75;;;;;;;;;;4943975;29;20142;-75
2022/06/12 02:53:08;;;;;;;17.63;5.10;;;;;;;;;;4932580;28;20440;-75
2022/06/12 02:55:44;;;;;;;14.70;4.57;;;;;;;;;;4932930;29;20154;-75
2022/06/12 02:58:20;;;;;;;16.65;5.30;;;;;;;;;;4929679;29;20059;-75
2022/06/12 03:00:47;;;;;;;13.43;5.60;;;;;;;;;;4947454;29;20547;-75
2022/06/12 03:03:15;;;;;;;14.00;5.60;;;;;;;;;;4937639;29;20134;-75
2022/06/12 03:05:43;;;;;;;20.77;5.05;;;;;;;;;;4929681;29;20082;-75
2022/06/12 03:08:14;;;;;;;18.55;5.60;;;;;;;;;;4929111;29;20118;-75
2022/06/12 03:10:47;;;;;;;19.73;5.40;;;;;;;;;;4928614;29;20143;-75
2022/06/12 03:13:15;;;;;;;10.35;4.68;;;;;;;;;;4929506;29;20118;-75
2022/06/12 03:15:48;;;;;;;19.08;6.05;;;;;;;;;;4929194;29;20150;-75
2022/06/12 03:18:27;;;;;;;17.65;6.38;;;;;;;;;;4912570;29;20047;-75
2022/06/12 03:20:54;;;;;;;17.63;5.65;;;;;;;;;;4928400;29;20056;-75
2022/06/12 03:23:31;;;;;;;16.65;5.38;;;;;;;;;;4916066;29;20134;-75
2022/06/12 03:26:00;;;;;;;21.63;6.97;;;;;;;;;;4948742;28;20154;-75
2022/06/12 03:28:36;;;;;;;25.83;7.45;;;;;;;;;;4936199;29;20135;-75
2022/06/12 03:31:12;;;;;;;17.85;6.82;;;;;;;;;;4928933;29;20052;-75
2022/06/12 03:33:39;;;;;;;13.52;5.10;;;;;;;;;;4910443;29;20048;-75
2022/06/12 03:36:07;;;;;;;23.55;6.28;;;;;;;;;;4910342;29;20355;-75
2022/06/12 03:38:40;;;;;;;15.93;5.32;;;;;;;;;;4910266;29;20083;-75
2022/06/12 03:41:07;;;;;;;16.13;5.30;;;;;;;;;;4910333;29;20082;-75
2022/06/12 03:43:41;;;;;;;20.50;6.78;;;;;;;;;;4946513;29;20110;-76
2022/06/12 03:46:27;;;;;;;14.95;4.97;;;;;;;;;;4931398;29;20055;-76
2022/06/12 03:48:58;;;;;;;19.40;5.13;;;;;;;;;;4928984;29;20593;-75
2022/06/12 03:51:32;;;;;;;15.73;5.15;;;;;;;;;;4927289;29;20152;-76
2022/06/12 03:54:03;;;;;;;13.40;4.40;;;;;;;;;;4909703;29;20146;-75
2022/06/12 03:59:27;;;;;;;22.75;5.72;;;;;;;;;;4948079;29;20175;-75
2022/06/12 04:01:55;;;;;;;16.05;5.78;;;;;;;;;;4936121;29;20152;-75
2022/06/12 04:04:24;;;;;;;18.83;5.35;;;;;;;;;;4928941;29;20059;-75
2022/06/12 04:06:53;;;;;;;16.02;5.20;;;;;;;;;;4929294;29;20147;-75
2022/06/12 04:09:23;;;;;;;17.95;5.18;;;;;;;;;;4928827;29;20139;-75
2022/06/12 04:12:01;;;;;;;18.23;5.70;;;;;;;;;;4911567;29;20139;-75
2022/06/12 04:14:35;;;;;;;17.77;5.57;;;;;;;;;;4927256;29;20213;-75
2022/06/12 04:17:04;;;;;;;23.10;5.82;;;;;;;;;;4929587;29;20055;-75
2022/06/12 04:19:58;;;;;;;15.65;6.32;;;;;;;;;;4934425;29;20074;-75
2022/06/12 04:22:21;;;;;;;13.57;5.60;;;;;;;;;;4928561;29;20138;-75
2022/06/12 04:24:51;;;;;;;15.80;6.25;;;;;;;;;;4943014;29;20133;-75
2022/06/12 04:27:18;;;;;;;21.13;5.47;;;;;;;;;;4947372;28;20055;-75
2022/06/12 04:29:51;;;;;;;13.82;5.30;;;;;;;;;;4941879;29;20131;-75
2022/06/12 04:32:19;;;;;;;21.67;5.45;;;;;;;;;;4930451;29;20083;-75
2022/06/12 04:34:47;;;;;;;16.73;5.40;;;;;;;;;;4914979;29;20162;-75
2022/06/12 04:37:17;;;;;;;17.85;5.03;;;;;;;;;;4931445;29;20076;-75
2022/06/12 04:39:45;;;;;;;10.35;3.97;;;;;;;;;;4932260;29;20126;-75
2022/06/12 04:42:13;;;;;;;16.35;5.07;;;;;;;;;;4946724;29;20134;-75
2022/06/12 04:44:41;;;;;;;13.48;5.00;;;;;;;;;;4951005;28;20124;-75
2022/06/12 04:47:11;;;;;;;12.90;4.85;;;;;;;;;;4951136;29;20126;-74
2022/06/12 04:49:38;;;;;;;17.58;5.70;;;;;;;;;;4943110;29;20139;-74
2022/06/12 04:52:07;;;;;;;15.20;5.20;;;;;;;;;;4931683;29;20162;-74
2022/06/12 04:54:35;;;;;;;15.60;4.55;;;;;;;;;;4930776;29;20055;-74
2022/06/12 04:57:03;;;;;;;18.98;5.22;;;;;;;;;;4931811;29;20079;-75
2022/06/12 04:59:30;;;;;;;16.50;5.03;;;;;;;;;;4937487;29;20448;-75
2022/06/12 05:01:57;;;;;;;10.48;4.22;;;;;;;;;;4950565;29;20429;-75
2022/06/12 05:04:26;;;;;;;20.20;5.18;;;;;;;;;;4933538;29;20051;-76
2022/06/12 05:06:54;;;;;;;21.83;5.85;;;;;;;;;;4933124;29;20059;-75
2022/06/12 05:09:22;;;;;;;15.25;4.97;;;;;;;;;;4946287;29;20155;-76
2022/06/12 05:11:50;;;;;;;15.05;5.88;;;;;;;;;;4931474;29;20489;-74
2022/06/12 05:14:17;;;;;;;14.75;4.53;;;;;;;;;;4931275;29;20147;-76
2022/06/12 05:16:48;;;;;;;13.63;4.57;;;;;;;;;;4930632;29;20098;-77
2022/06/12 05:19:17;;;;;;;21.77;5.70;;;;;;;;;;4931355;29;20097;-76
2022/06/12 05:21:45;;;;;;;15.18;4.82;;;;;;;;;;4931130;29;20079;-76
2022/06/12 05:24:13;;;;;;;17.25;4.60;;;;;;;;;;4931753;29;20130;-75
2022/06/12 05:26:41;;;;;;;20.92;5.32;;;;;;;;;;4930973;29;20087;-76
2022/06/12 05:29:11;;;;;;;17.38;4.10;;;;;;;;;;4930895;29;20150;-75
2022/06/12 05:31:38;;;;;;;39.58;6.32;;;;;;;;;;4931036;29;20208;-74
2022/06/12 05:34:06;;;;;;;18.55;4.97;;;;;;;;;;4930819;29;20118;-76
2022/06/12 05:36:33;;;;;;;17.77;4.68;;;;;;;;;;4947323;29;20687;-75
2022/06/12 05:39:00;;;;;;;24.83;4.63;;;;;;;;;;4932915;29;20134;-79
2022/06/12 05:41:27;;;;;;;16.23;4.28;;;;;;;;;;4949513;28;20051;-75
2022/06/12 05:43:55;;;;;;;15.45;4.68;;;;;;;;;;4938592;28;20166;-74
2022/06/12 05:46:22;;;;;;;19.45;4.50;;;;;;;;;;4913997;29;20056;-75
2022/06/12 05:48:50;;;;;;;14.38;4.32;;;;;;;;;;4930906;29;20056;-77
2022/06/12 05:51:18;;;;;;;18.63;4.32;;;;;;;;;;4930293;29;20135;-78
2022/06/12 05:53:45;;;;;;;14.77;3.67;;;;;;;;;;4913332;29;20493;-78
2022/06/12 05:56:15;;;;;;;11.85;3.65;;;;;;;;;;4914943;29;20048;-76
2022/06/12 05:58:43;;;;;;;15.82;3.92;;;;;;;;;;4928998;29;20539;-74
2022/06/12 06:01:11;;;;;;;12.57;3.88;;;;;;;;;;4929169;29;20517;-74
2022/06/12 06:03:39;;;;;;;21.20;3.67;;;;;;;;;;4915299;29;20151;-74
2022/06/12 06:06:07;;;;;;;16.67;3.85;;;;;;;;;;4929697;29;20052;-77
2022/06/12 06:08:35;;;;;;;10.90;2.80;;;;;;;;;;4929719;29;20111;-77
2022/06/12 06:11:03;;;;;;;17.85;3.40;;;;;;;;;;4930014;29;20086;-75
2022/06/12 06:13:30;;;;;;;14.88;2.80;;;;;;;;;;4912949;29;20519;-75
2022/06/12 06:15:57;;;;;;;15.55;3.75;;;;;;;;;;4930064;29;20126;-75
2022/06/12 06:18:25;;;;;;;9.82;2.83;;;;;;;;;;4931217;29;20087;-74
2022/06/12 06:20:52;;;;;;;12.23;2.80;;;;;;;;;;4929657;29;20152;-76
2022/06/12 06:23:19;;;;;;;17.25;3.03;;;;;;;;;;4912105;29;20584;-75
2022/06/12 06:25:47;;;;;;;10.57;2.55;;;;;;;;;;4927517;29;20083;-75
2022/06/12 06:28:15;;;;;;;7.32;2.10;;;;;;;;;;4927406;29;20127;-77
2022/06/12 06:30:42;;;;;;;12.65;2.80;;;;;;;;;;4911903;29;20078;-77
2022/06/12 06:33:10;;;;;;;7.97;2.80;;;;;;;;;;4910872;29;20485;-76
2022/06/12 06:35:38;;;;;;;9.48;1.88;;;;;;;;;;4910962;29;20130;-77
2022/06/12 06:38:06;;;;;;;11.15;2.42;;;;;;;;;;4928068;29;20145;-76
2022/06/12 06:40:35;;;;;;;15.80;2.20;;;;;;;;;;4911206;29;20590;-76
2022/06/12 06:43:06;;;;;;;5.60;1.80;;;;;;;;;;4925076;29;20055;-76
2022/06/12 06:48:19;;;;;;;11.07;1.95;;;;;;;;;;4927750;29;20122;-75
2022/06/12 06:50:47;;;;;;;9.90;2.20;;;;;;;;;;4929869;29;20134;-76
2022/06/12 06:53:14;;;;;;;16.92;3.08;;;;;;;;;;4928343;29;20056;-75
2022/06/12 06:55:42;;;;;;;11.43;2.53;;;;;;;;;;4912874;29;20086;-78
2022/06/12 06:58:11;;;;;;;9.45;1.90;;;;;;;;;;4893294;29;20134;-78
2022/06/12 07:00:39;;;;;;;8.85;2.00;;;;;;;;;;4919978;29;20886;-77
2022/06/12 07:03:07;;;;;;;13.80;1.60;;;;;;;;;;4923370;29;20071;-77
2022/06/12 07:05:35;;;;;;;6.90;1.80;;;;;;;;;;4900076;29;20066;-77
2022/06/12 07:08:03;;;;;;;9.45;1.50;;;;;;;;;;4918368;29;20139;-77
2022/06/12 07:10:32;;;;;;;12.48;1.65;;;;;;;;;;4912775;29;20102;-77
2022/06/12 07:13:00;;;;;;;6.53;1.92;;;;;;;;;;4924713;29;20099;-79
2022/06/12 07:15:28;;;;;;;14.00;1.67;;;;;;;;;;4928020;29;20135;-76
2022/06/12 07:17:58;;;;;;;9.68;1.83;;;;;;;;;;4928430;29;20127;-77
2022/06/12 07:20:27;;;;;;;7.05;1.50;;;;;;;;;;4926604;29;20411;-76
2022/06/12 07:22:55;;;;;;;9.48;1.88;;;;;;;;;;4927637;29;20552;-75
2022/06/12 07:25:23;;;;;;;6.47;1.55;;;;;;;;;;4929670;29;20127;-73
2022/06/12 07:27:50;;;;;;;11.60;2.00;;;;;;;;;;4928860;29;20130;-76
2022/06/12 07:30:22;;;;;;;11.75;1.50;;;;;;;;;;4912789;29;20055;-77
2022/06/12 07:32:50;;;;;;;10.25;1.80;;;;;;;;;;4927809;29;20580;-77
2022/06/12 07:35:18;;;;;;;10.38;1.63;;;;;;;;;;4927503;29;20044;-76
2022/06/12 07:37:46;;;;;;;11.27;1.80;;;;;;;;;;4925973;29;20095;-77
2022/06/12 07:40:19;;;;;;;8.40;2.08;;;;;;;;;;4929151;29;20099;-77
2022/06/12 07:42:47;;;;;;;9.65;1.80;;;;;;;;;;4905448;29;20067;-77
2022/06/12 07:45:15;;;;;;;8.80;2.28;;;;;;;;;;4923188;29;20091;-77
2022/06/12 07:47:42;;;;;;;14.30;2.05;;;;;;;;;;4909127;29;20106;-77
2022/06/12 07:50:10;;;;;;;11.95;2.33;;;;;;;;;;4926323;29;20059;-78
2022/06/12 07:52:39;;;;;;;17.17;2.15;;;;;;;;;;4926662;29;20130;-78
2022/06/12 07:55:07;;;;;;;12.02;2.67;;;;;;;;;;4900328;29;20670;-78
2022/06/12 07:57:34;;;;;;;13.20;2.78;;;;;;;;;;4938665;29;20138;-77
2022/06/12 08:00:01;;;;;;;10.85;2.38;;;;;;;;;;4934962;29;20094;-75
2022/06/12 08:02:28;;;;;;;11.48;1.95;;;;;;;;;;4914664;29;20091;-74
2022/06/12 08:04:56;;;;;;;45.67;5.65;;;;;;;;;;4922150;29;20048;-77
2022/06/12 08:07:23;;;;;;;21.58;3.72;;;;;;;;;;4934359;28;20356;-76
2022/06/12 08:09:50;;;;;;;16.58;3.22;;;;;;;;;;4929202;29;20101;-74
2022/06/12 08:12:18;;;;;;;12.27;2.17;;;;;;;;;;4930775;29;20474;-74
2022/06/12 08:14:45;;;;;;;61.53;7.45;;;;;;;;;;4915331;29;20091;-74
2022/06/12 08:17:12;;;;;;;86.88;10.32;;;;;;;;;;4915807;29;20131;-77
2022/06/12 08:22:31;;;;;;;15.40;2.50;;;;;;;;;;4930618;29;20051;-73
2022/06/12 08:24:58;;;;;;;11.10;2.70;;;;;;;;;;4913447;29;20138;-74
2022/06/12 08:27:26;;;;;;;17.23;2.85;;;;;;;;;;4930877;29;20059;-76
2022/06/12 08:29:53;;;;;;;13.00;2.78;;;;;;;;;;4932080;29;20134;-76
2022/06/12 08:32:22;;;;;;;15.90;4.15;;;;;;;;;;4930559;29;20153;-76
2022/06/12 08:34:54;;;;;;;10.07;2.70;;;;;;;;;;4923417;29;20158;-77
2022/06/12 08:37:25;;;;;;;10.23;2.50;;;;;;;;;;4914041;29;20051;-76
2022/06/12 08:39:53;;;;;;;12.88;2.40;;;;;;;;;;4920042;29;20123;-76
2022/06/12 08:42:44;;;;;;;12.27;3.03;;;;;;;;;;4933076;29;20054;-77
2022/06/12 08:45:20;;;;;;;12.00;2.58;;;;;;;;;;4930586;29;20087;-76
2022/06/12 08:47:50;;;;;;;11.32;2.50;;;;;;;;;;4929283;29;20115;-76
2022/06/12 08:50:36;;;;;;;11.13;2.72;;;;;;;;;;4927855;29;20083;-77
2022/06/12 08:53:14;;;;;;;10.70;2.80;;;;;;;;;;4929172;29;20063;-76
2022/06/12 08:55:41;;;;;;;10.75;2.45;;;;;;;;;;4908925;29;20142;-77
2022/06/12 08:58:31;;;;;;;12.55;2.63;;;;;;;;;;4929041;29;20118;-76
2022/06/12 09:00:59;;;;;;;14.43;2.78;;;;;;;;;;4931246;28;20097;-76
2022/06/12 09:03:30;;;;;;;13.57;2.72;;;;;;;;;;4905424;29;20166;-76
2022/06/12 09:06:09;;;;;;;14.18;2.75;;;;;;;;;;4909455;29;20059;-76
2022/06/12 09:08:44;;;;;;;8.88;2.20;;;;;;;;;;4917598;29;20162;-76
2022/06/12 09:11:20;;;;;;;17.30;2.75;;;;;;;;;;4928081;29;20158;-75
2022/06/12 09:13:50;;;;;;;10.45;2.63;;;;;;;;;;4931220;29;20101;-75
2022/06/12 09:16:20;;;;;;;16.63;3.53;;;;;;;;;;4930174;29;20115;-75
2022/06/12 09:18:59;;;;;;;11.32;3.20;;;;;;;;;;4928419;29;20384;-75
2022/06/12 09:21:47;;;;;;;10.45;2.97;;;;;;;;;;4931942;29;20131;-76
2022/06/12 09:24:17;;;;;;;12.00;3.10;;;;;;;;;;4912840;29;20130;-75
2022/06/12 09:27:02;;;;;;;17.75;3.67;;;;;;;;;;4930690;29;20090;-77
2022/06/12 09:29:47;;;;;;;14.30;3.22;;;;;;;;;;4916776;29;20163;-77
2022/06/12 09:32:46;;;;;;;12.75;2.58;;;;;;;;;;4910541;29;20166;-77
2022/06/12 09:35:32;;;;;;;13.02;2.45;;;;;;;;;;4910005;29;20091;-76
2022/06/12 09:38:21;;;;;;;8.45;2.65;;;;;;;;;;4930209;29;20091;-76
2022/06/12 09:40:58;;;;;;;14.90;2.88;;;;;;;;;;4930407;29;20062;-76
2022/06/12 09:43:28;;;;;;;11.85;2.70;;;;;;;;;;4929984;29;20055;-76
2022/06/12 09:46:01;;;;;;;12.50;2.63;;;;;;;;;;4928356;29;20479;-77
2022/06/12 09:48:48;;;;;;;11.95;2.85;;;;;;;;;;4930463;29;20064;-77
2022/06/12 09:51:18;;;;;;;10.85;2.55;;;;;;;;;;4927072;29;20087;-77
2022/06/12 09:53:54;;;;;;;8.45;2.58;;;;;;;;;;4930543;29;20091;-77
2022/06/12 09:56:29;;;;;;;7.30;2.33;;;;;;;;;;4928610;29;21103;-76
2022/06/12 09:58:56;;;;;;;;;;;;;;;;;;4927287;29;20265;-76
2022/06/12 10:01:26;;;;;;;10.02;2.33;;;;;;;;;;4925623;29;19970;-76
2022/06/12 10:03:57;;;;;;;10.65;2.58;;;;;;;;;;4928325;29;20052;-76
2022/06/12 10:06:31;;;;;;;9.43;2.63;;;;;;;;;;4927135;29;21464;-76
2022/06/12 10:09:07;;;;;;;12.13;2.75;;;;;;;;;;4912143;29;20442;-76
2022/06/12 10:11:34;;;;;;;12.07;2.78;;;;;;;;;;4924055;29;20052;-76
2022/06/12 10:14:05;;;;;;;11.63;2.70;;;;;;;;;;4929812;29;20127;-74
2022/06/12 10:16:37;;;;;;;12.80;2.92;;;;;;;;;;4912420;29;20139;-76
2022/06/12 10:19:28;;;;;;;70.03;5.75;;;;;;;;;;4896830;29;20052;-76
2022/06/12 10:21:57;;;;;;;13.95;2.92;;;;;;;;;;4924662;29;20061;-76
2022/06/12 10:24:24;;;;;;;10.13;2.83;;;;;;;;;;4929197;29;20103;-76
2022/06/12 10:26:57;;;;;;;10.68;2.75;;;;;;;;;;4926947;29;20138;-76
2022/06/12 10:29:24;;;;;;;14.23;3.40;;;;;;;;;;4926792;29;20083;-77
2022/06/12 10:31:58;;;;;;;7.05;2.10;;;;;;;;;;4923538;29;20142;-76
2022/06/12 10:34:32;;;;;;;9.38;2.53;;;;;;;;;;4918535;29;20062;-77
2022/06/12 10:37:18;;;;;;;12.13;2.10;;;;;;;;;;4912106;29;20130;-76
2022/06/12 10:39:46;;;;;;;11.00;2.38;;;;;;;;;;4926015;29;20071;-74
2022/06/12 10:42:38;;;;;;;11.73;2.03;;;;;;;;;;4909114;29;20079;-75
2022/06/12 10:45:05;;;;;;;10.38;2.03;;;;;;;;;;4910901;29;20151;-74
2022/06/12 10:47:42;;;;;;;13.98;2.40;;;;;;;;;;4924109;29;20082;-74
2022/06/12 10:50:13;;;;;;;7.07;1.70;;;;;;;;;;4929679;29;20079;-73
2022/06/12 10:52:52;;;;;;;10.45;2.47;;;;;;;;;;4927759;29;20111;-75
2022/06/12 10:55:24;;;;;;;6.30;1.75;;;;;;;;;;4909794;29;20163;-75
2022/06/12 10:57:57;;;;;;;12.27;2.17;;;;;;;;;;4911085;29;20139;-75
2022/06/12 11:00:27;;;;;;;7.60;1.83;;;;;;;;;;4926699;29;20147;-75
2022/06/12 11:03:18;;;;;;;17.35;2.53;;;;;;;;;;4929660;29;20091;-74
2022/06/12 11:06:04;;;;;;;6.07;1.67;;;;;;;;;;4926898;29;20138;-75
2022/06/12 11:08:34;;;;;;;9.15;1.80;;;;;;;;;;4928464;29;20060;-75
2022/06/12 11:11:03;;;;;;;10.10;1.90;;;;;;;;;;4925508;29;20130;-77
2022/06/12 11:13:43;;;;;;;9.77;2.22;;;;;;;;;;4909699;29;20059;-78
2022/06/12 11:16:10;;;;;;;11.15;2.20;;;;;;;;;;4929368;29;20548;-77
2022/06/12 11:18:43;;;;;;;11.40;2.10;;;;;;;;;;4924555;29;20051;-77
2022/06/12 11:21:20;;;;;;;7.63;2.05;;;;;;;;;;4930805;28;20134;-78
2022/06/12 11:23:56;;;;;;;6.43;2.33;;;;;;;;;;4927257;29;20131;-74
2022/06/12 11:26:38;;;;;;;9.25;2.13;;;;;;;;;;4925403;29;20070;-75
2022/06/12 11:29:24;;;;;;;9.57;1.98;;;;;;;;;;4929427;29;20155;-76
2022/06/12 11:32:10;;;;;;;10.55;2.42;;;;;;;;;;4927067;29;20143;-76
2022/06/12 11:34:57;;;;;;;8.48;1.60;;;;;;;;;;4909948;29;20139;-77
2022/06/12 11:37:36;;;;;;;8.65;1.88;;;;;;;;;;4922177;29;20134;-77
2022/06/12 11:40:22;;;;;;;9.88;2.75;;;;;;;;;;4910286;29;20052;-77
2022/06/12 11:43:05;;;;;;;8.40;2.13;;;;;;;;;;4928404;29;20079;-76
2022/06/12 11:45:58;;;;;;;10.77;1.88;;;;;;;;;;4911511;29;20052;-77
2022/06/12 11:48:31;;;;;;;10.77;2.47;;;;;;;;;;4929243;29;20059;-77
2022/06/12 11:51:10;;;;;;;10.20;1.88;;;;;;;;;;4928877;29;20055;-77
2022/06/12 11:53:40;;;;;;;9.75;2.05;;;;;;;;;;4911827;29;20651;-77
2022/06/12 11:56:07;;;;;;;11.68;2.03;;;;;;;;;;4928504;29;20135;-77
2022/06/12 11:58:40;;;;;;;10.05;1.98;;;;;;;;;;4911265;29;20163;-76
2022/06/12 12:01:10;;;;;;;8.82;1.85;;;;;;;;;;4925646;29;20072;-76
2022/06/12 12:03:56;;;;;;;8.50;2.28;;;;;;;;;;4927323;29;20099;-75
2022/06/12 12:06:29;;;;;;;6.03;1.83;;;;;;;;;;4926534;29;20143;-75
2022/06/12 12:08:56;;;;;;;11.57;1.83;;;;;;;;;;4917440;29;20060;-76
2022/06/12 12:11:30;;;;;;;9.55;1.50;;;;;;;;;;4909449;29;20072;-76
2022/06/12 12:14:00;;;;;;;8.55;1.70;;;;;;;;;;4918221;29;20567;-77
2022/06/12 12:16:34;;;;;;;10.70;2.13;;;;;;;;;;4927860;29;20055;-77
2022/06/12 12:19:20;;;;;;;9.02;1.40;;;;;;;;;;4925052;29;20048;-77
2022/06/12 12:21:54;;;;;;;9.05;1.55;;;;;;;;;;4925821;29;20139;-74
2022/06/12 12:24:47;;;;;;;5.60;1.70;;;;;;;;;;4927582;29;20135;-74
2022/06/12 12:27:18;;;;;;;18.17;2.22;;;;;;;;;;4923046;29;20086;-76
2022/06/12 12:29:46;;;;;;;13.38;1.95;;;;;;;;;;4913390;29;20692;-75
2022/06/12 12:32:14;;;;;;;7.90;1.92;;;;;;;;;;4925886;29;20098;-75
2022/06/12 12:34:42;;;;;;;8.20;1.70;;;;;;;;;;4926571;29;20126;-75
2022/06/12 12:43:21;;;;;;;6.20;1.33;;;;;;;;;;4925375;29;20084;-76
2022/06/12 12:45:59;;;;;;;5.97;1.40;;;;;;;;;;4932152;28;20083;-76
2022/06/12 12:48:26;;;;;;;8.27;1.70;;;;;;;;;;4930078;29;20155;-76
2022/06/12 12:50:55;;;;;;;7.70;1.55;;;;;;;;;;4916554;29;20169;-76
2022/06/12 12:53:30;;;;;;;5.60;1.40;;;;;;;;;;4917135;29;20655;-76
2022/06/12 12:56:07;;;;;;;7.78;1.52;;;;;;;;;;4930293;29;20697;-75
2022/06/12 12:58:36;;;;;;;4.22;1.38;;;;;;;;;;4929442;29;20160;-76
2022/06/12 13:01:17;;;;;;;7.90;1.65;;;;;;;;;;4930049;29;20107;-76
2022/06/12 13:03:49;;;;;;;4.90;1.05;;;;;;;;;;4930225;29;20051;-76
2022/06/12 13:06:24;;;;;;;5.88;1.52;;;;;;;;;;4918496;29;20143;-76
2022/06/12 13:09:04;;;;;;;9.13;1.70;;;;;;;;;;4921541;29;20056;-76
2022/06/12 13:11:40;;;;;;;9.23;1.33;;;;;;;;;;4930152;29;20079;-76
2022/06/12 13:14:13;;;;;;;4.65;1.38;;;;;;;;;;4926291;29;20433;-77
2022/06/12 13:16:54;;;;;;;5.18;1.48;;;;;;;;;;4928889;29;20194;-76
2022/06/12 13:19:21;;;;;;;7.75;1.45;;;;;;;;;;4929754;29;20106;-76
2022/06/12 13:21:58;;;;;;;4.05;1.50;;;;;;;;;;4942899;29;20094;-77
2022/06/12 13:24:25;;;;;;;6.47;1.52;;;;;;;;;;4930186;29;20107;-77
2022/06/12 13:26:53;;;;;;;11.63;1.98;;;;;;;;;;4926968;29;20139;-76
2022/06/12 13:29:22;;;;;;;7.07;1.45;;;;;;;;;;4931038;29;20090;-76
2022/06/12 13:31:57;;;;;;;5.53;1.75;;;;;;;;;;4931008;29;20059;-76
2022/06/12 13:34:25;;;;;;;;;;;;;;;;;;4931644;29;20063;-76
2022/06/12 13:36:52;;;;;;;6.45;1.38;;;;;;;;;;4930981;29;20021;-76
2022/06/12 13:39:22;;;;;;;6.45;1.50;;;;;;;;;;4930399;29;20090;-76
2022/06/12 13:41:53;;;;;;;5.38;1.42;;;;;;;;;;4930250;29;20087;-76
2022/06/12 13:44:29;;;;;;;5.25;1.17;;;;;;;;;;4911643;29;20134;-77
2022/06/12 13:46:58;;;;;;;7.10;1.33;;;;;;;;;;4913566;29;20158;-77
2022/06/12 13:49:30;;;;;;;4.32;1.05;;;;;;;;;;4907839;29;20066;-76
2022/06/12 13:52:00;;;;;;;8.48;1.20;;;;;;;;;;4930384;29;20079;-76
2022/06/12 13:54:29;;;;;;;5.90;1.13;;;;;;;;;;4932820;29;20087;-76
2022/06/12 13:57:11;;;;;;;4.18;1.48;;;;;;;;;;4929784;29;20264;-76
2022/06/12 13:59:46;;;;;;;9.27;1.40;;;;;;;;;;4928813;29;20134;-75
2022/06/12 14:02:13;;;;;;;;;;;;;;;;;;4927539;29;20079;-75
2022/06/12 14:04:48;;;;;;;3.40;1.40;;;;;;;;;;4929423;29;19922;-76
2022/06/12 14:07:16;;;;;;;;;;;;;;;;;;4912784;29;20075;-76
2022/06/12 14:09:43;;;;;;;5.25;1.55;;;;;;;;;;4929835;29;19973;-75
2022/06/12 14:12:14;;;;;;;10.90;1.60;;;;;;;;;;4929696;29;20052;-76
2022/06/12 14:14:43;;;;;;;4.95;1.17;;;;;;;;;;4912913;29;20130;-76
2022/06/12 14:17:23;;;;;;;5.97;1.50;;;;;;;;;;4929776;29;20059;-76
2022/06/12 14:20:10;;;;;;;14.82;1.35;;;;;;;;;;4928947;29;20078;-75
2022/06/12 14:22:44;;;;;;;8.70;1.40;;;;;;;;;;4927523;29;20470;-76
2022/06/12 14:25:29;;;;;;;4.35;1.23;;;;;;;;;;4930734;29;20079;-76
2022/06/12 14:27:59;;;;;;;5.57;1.27;;;;;;;;;;4933500;29;20095;-76
2022/06/12 14:30:41;;;;;;;4.03;1.08;;;;;;;;;;4913180;29;20082;-76
2022/06/12 14:33:22;;;;;;;6.43;1.20;;;;;;;;;;4929825;29;20512;-77
2022/06/12 14:35:49;;;;;;;6.63;1.38;;;;;;;;;;4913387;29;20095;-77
2022/06/12 14:38:19;;;;;;;5.85;1.30;;;;;;;;;;4929897;29;20414;-77
2022/06/12 14:40:47;;;;;;;6.05;1.50;;;;;;;;;;4929624;29;20098;-76
2022/06/12 14:43:22;;;;;;;11.13;1.33;;;;;;;;;;4912702;29;20103;-76
2022/06/12 14:45:51;;;;;;;6.25;1.25;;;;;;;;;;4929606;29;20063;-76
2022/06/12 14:48:23;;;;;;;7.07;1.38;;;;;;;;;;4934075;29;20113;-76
2022/06/12 14:50:51;;;;;;;8.05;1.20;;;;;;;;;;4949394;29;20141;-75
2022/06/12 14:53:18;;;;;;;7.80;1.30;;;;;;;;;;4948939;29;20093;-76
2022/06/12 14:55:46;;;;;;;6.47;2.00;;;;;;;;;;4928062;29;20135;-76
2022/06/12 14:58:25;;;;;;;10.57;1.48;;;;;;;;;;4912603;29;20134;-76
2022/06/12 15:00:57;;;;;;;2.78;1.10;;;;;;;;;;4928993;29;20075;-76
2022/06/12 15:03:25;;;;;;;7.28;1.67;;;;;;;;;;4907529;29;20135;-76
2022/06/12 15:05:52;;;;;;;7.30;1.42;;;;;;;;;;4911159;29;20151;-76
2022/06/12 15:08:20;;;;;;;7.65;1.70;;;;;;;;;;4935066;29;20137;-76
2022/06/12 15:10:47;;;;;;;7.00;1.65;;;;;;;;;;4948160;28;20132;-76
2022/06/12 15:13:17;;;;;;;11.77;1.27;;;;;;;;;;4941951;29;20905;-77
2022/06/12 15:15:44;;;;;;;9.23;1.55;;;;;;;;;;4928474;29;20159;-76
2022/06/12 15:18:12;;;;;;;7.00;2.03;;;;;;;;;;4928530;29;20054;-76
2022/06/12 15:20:43;;;;;;;11.10;1.95;;;;;;;;;;4928526;29;20051;-76
2022/06/12 15:23:12;;;;;;;9.27;2.03;;;;;;;;;;4929212;29;20135;-76